Terminal Aerodrome Forecast
Issued by NWS Sterling, VA

Current Version | Previous Version | Text Only | Print | Product List | Glossary Off
Versions: 1 2 3 4 5 6 7 8 9 10 11 12 13 14 15 16 17 18 19 20 21 22 23 24 25 26

000
FTUS41 KLWX 251720
TAFIAD
TAF
KIAD 251720Z 2518/2624 21008KT P6SM BKN030
     FM252000 21008KT 6SM -SHRA VCTS BKN040CB
     FM260100 24008G16KT P6SM BKN050
     FM261400 28012G22KT P6SM BKN050=

USA.gov is the U.S. government's official web portal to all federal, state and local government web resources and services.